Accueil
METAR-TAF:

METAR-TAF

Aéroports :

Bangkok, Thaïlande

Aéroport international Don Muang

latitude: 13-54-45N, longitude: 100-36-24E, altitude: 4 m

Observation

Le bulletin a été fait il y a 13 minutes, à 03:00 UTC
Vent 5 kt de sud-ouest, variant entre sud et ouest
Température 31°C
Humidité 66%
Pression 1010 hPa
Visibilité 10 km ou plus
Quelques nuages à une hauteur de 2000 ft

METAR: VTBD 250300Z 22005KT 190V270 9999 FEW020 31/24 Q1010 NOSIG

Heure: 10:13 (03:13 UTC)

Prévision

Le bulletin a été fait il y a 4 heures et 13 minutes, à 23:00 UTC
Prévision valable du 25 à 00 UTC au 26 à 06 UTC
Vent 8 kt de sud
Visibilité 10 km ou plus
Quelques nuages à une hauteur de 2000 ft

TAF: VTBD 242300Z 2500/2606 19008KT 9999 FEW020

Observations et prévisions météorologiques de plus de 4000 aéroports (messages METAR et TAF).

Les stations disponibles sont représentées par des disques jaunes et rouges sur la carte.

Passer la souris dessus pour voir le nom de la station.

Cliquer dessus pour voir les observations et prévisions météorologiques.

Pour changer de carte: cliquez sur les boutons verts avec une croix noire pour zoomer, sur le bouton vert avec un tiret pour effectuer un zoom arrière, ou sur les flèches vertes pour les cartes adjacentes.


METAR-TAF: